Time;durP1;ratioP1;P1;durP2;ratioP2;P2;SDS_P1;SDS_P2;PMS_P1;PMS_P2;Temp;Humidity;BMP_temperature;BMP_pressure;BME280_temperature;BME280_humidity;BME280_pressure;Samples;Min_cycle;Max_cycle;Signal;HPM_P1;HPM_P2
2022/08/05 00:00:42;;;;;;;32.30;7.13;;;;;;;26.04;87.83;97519.97;5009494;28;20033;-62
2022/08/05 00:03:07;;;;;;;32.63;7.53;;;;;;;26.14;86.95;97516.09;5008468;28;20856;-62
2022/08/05 00:05:33;;;;;;;31.65;7.05;;;;;;;25.96;87.97;97521.69;5008759;28;20602;-62
2022/08/05 00:07:58;;;;;;;32.10;7.30;;;;;;;25.91;88.24;97521.31;5008601;28;20083;-62
2022/08/05 00:10:23;;;;;;;31.63;7.32;;;;;;;25.67;90.52;97530.22;5008220;28;20058;-62
2022/08/05 00:12:49;;;;;;;32.63;6.90;;;;;;;25.81;91.48;97522.56;5009810;28;20037;-62
2022/08/05 00:15:14;;;;;;;31.58;7.47;;;;;;;26.07;89.00;97520.47;5009159;28;20039;-61
2022/08/05 00:17:40;;;;;;;33.22;7.00;;;;;;;26.10;88.80;97509.44;5008171;28;20017;-62
2022/08/05 00:20:05;;;;;;;33.65;6.93;;;;;;;26.78;81.47;97514.28;5010332;28;20077;-61
2022/08/05 00:22:31;;;;;;;42.15;7.97;;;;;;;26.72;81.31;97518.50;5011046;28;20049;-63
2022/08/05 00:24:56;;;;;;;31.80;6.68;;;;;;;26.98;79.40;97514.66;5008895;28;20028;-62
2022/08/05 00:27:21;;;;;;;41.35;7.85;;;;;;;26.73;81.09;97509.47;5009660;28;20034;-62
2022/08/05 00:29:47;;;;;;;34.20;7.50;;;;;;;26.19;84.23;97507.56;5009697;28;20033;-62
2022/08/05 00:32:12;;;;;;;30.45;6.90;;;;;;;26.89;78.04;97506.69;5008027;28;20408;-62
2022/08/05 00:34:47;;;;;;;40.47;7.80;;;;;;;26.04;84.89;97498.59;5010705;28;20030;-62
2022/08/05 00:37:12;;;;;;;30.83;7.05;;;;;;;25.86;87.78;97507.66;5008896;28;20547;-62
2022/08/05 00:39:39;;;;;;;44.75;8.45;;;;;;;26.08;86.25;97503.44;5007792;28;20032;-62
2022/08/05 00:42:04;;;;;;;37.33;8.00;;;;;;;25.61;91.21;97508.75;5007008;28;20758;-62
2022/08/05 00:44:29;;;;;;;34.72;7.97;;;;;;;25.93;88.89;97514.03;5007409;28;20808;-61
2022/08/05 00:46:55;;;;;;;32.05;7.18;;;;;;;25.74;92.90;97522.38;5007802;28;20042;-61
2022/08/05 00:49:20;;;;;;;36.15;7.22;;;;;;;25.55;92.76;97511.06;5010480;28;20816;-62
2022/08/05 00:51:46;;;;;;;35.55;7.45;;;;;;;26.39;87.19;97513.31;5007772;28;20046;-62
2022/08/05 00:54:12;;;;;;;26.83;6.80;;;;;;;26.02;87.57;97517.47;5007956;28;20022;-62
2022/08/05 00:56:38;;;;;;;33.28;7.70;;;;;;;25.52;92.85;97506.06;5009243;28;20041;-61
2022/08/05 00:59:04;;;;;;;30.20;7.30;;;;;;;25.84;91.83;97504.31;5008725;28;20064;-62
2022/08/05 01:01:29;;;;;;;29.75;7.03;;;;;;;25.78;91.23;97503.16;5007435;28;20587;-62
2022/08/05 01:03:54;;;;;;;27.88;7.10;;;;;;;26.57;82.53;97505.03;5008603;28;20037;-62
2022/08/05 01:06:20;;;;;;;30.38;6.45;;;;;;;26.60;81.53;97496.69;5008952;28;20766;-61
2022/08/05 01:08:45;;;;;;;36.75;7.60;;;;;;;26.44;83.35;97496.75;5009674;28;20083;-62
2022/08/05 01:11:31;;;;;;;35.50;7.50;;;;;;;26.26;85.69;97499.69;5008673;28;20038;-61
2022/08/05 01:14:19;;;;;;;40.58;8.15;;;;;;;25.90;89.77;97492.97;5007947;28;20678;-62
2022/08/05 01:17:00;;;;;;;32.58;7.53;;;;;;;25.99;88.86;97495.63;5008089;28;20052;-62
2022/08/05 01:19:35;;;;;;;40.30;8.23;;;;;;;25.90;89.95;97486.78;5010554;28;20025;-61
2022/08/05 01:22:19;;;;;;;36.53;7.60;;;;;;;26.21;85.23;97484.19;5006966;28;20026;-62
2022/08/05 01:25:33;;;;;;;33.78;7.63;;;;;;;26.43;83.39;97479.03;5009347;28;20706;-61
2022/08/05 01:28:31;;;;;;;37.47;8.00;;;;;;;26.27;84.63;97478.13;4981834;28;20053;-61
2022/08/05 01:31:14;;;;;;;36.00;7.43;;;;;;;26.18;84.68;97481.84;5006949;28;20043;-61
2022/08/05 01:33:47;;;;;;;30.20;7.22;;;;;;;25.83;88.32;97491.97;5007634;28;20625;-62
2022/08/05 01:36:15;;;;;;;37.90;7.50;;;;;;;25.81;89.32;97477.97;5007874;28;20041;-61
2022/08/05 01:38:42;;;;;;;27.95;6.63;;;;;;;25.88;90.09;97478.94;5008250;28;20028;-62
2022/08/05 01:41:09;;;;;;;29.23;7.03;;;;;;;25.84;90.91;97471.44;5007902;28;20034;-62
2022/08/05 01:43:36;;;;;;;29.63;7.22;;;;;;;25.54;93.22;97482.69;5008136;28;20018;-62
2022/08/05 01:46:02;;;;;;;32.90;7.60;;;;;;;25.30;97.06;97482.75;5006684;28;20541;-61
2022/08/05 01:48:30;;;;;;;39.75;7.85;;;;;;;25.22;98.10;97483.56;5007438;28;20078;-62
2022/08/05 01:50:56;;;;;;;34.15;7.28;;;;;;;25.47;97.67;97481.72;5005742;28;20046;-61
2022/08/05 01:53:24;;;;;;;39.67;8.00;;;;;;;25.51;97.53;97477.72;5008135;28;20126;-62
2022/08/05 01:55:53;;;;;;;30.23;7.18;;;;;;;25.42;98.42;97478.75;5006502;28;20030;-62
2022/08/05 01:58:23;;;;;;;36.35;8.07;;;;;;;25.26;98.41;97484.09;5013588;28;20450;-61
2022/08/05 02:00:50;;;;;;;32.08;7.45;;;;;;;25.39;99.40;97487.91;5007827;28;20026;-64
2022/08/05 02:03:20;;;;;;;37.72;7.97;;;;;;;25.36;99.57;97484.72;5008871;28;20535;-61
2022/08/05 02:05:47;;;;;;;32.78;7.90;;;;;;;25.41;98.73;97490.41;5007370;28;20033;-61
2022/08/05 02:08:13;;;;;;;27.10;6.70;;;;;;;25.93;92.19;97487.31;5007381;28;21052;-61
2022/08/05 02:10:41;;;;;;;34.85;7.30;;;;;;;25.72;94.94;97484.34;5006827;28;20661;-62
2022/08/05 02:13:13;;;;;;;33.33;7.50;;;;;;;25.53;95.33;97481.03;5009311;28;20025;-62
2022/08/05 02:15:52;;;;;;;36.38;8.18;;;;;;;25.21;100.00;97493.38;5007334;28;20092;-62
2022/08/05 02:18:29;;;;;;;33.58;7.63;;;;;;;25.47;98.52;97492.38;5008808;28;20845;-62
2022/08/05 02:21:08;;;;;;;35.85;7.00;;;;;;;25.53;99.05;97491.72;5005871;28;20117;-61
2022/08/05 02:23:39;;;;;;;36.78;8.07;;;;;;;25.51;99.82;97488.41;5006135;28;20037;-61
2022/08/05 02:26:08;;;;;;;30.65;6.97;;;;;;;25.70;96.00;97489.03;5007567;28;20449;-61
2022/08/05 02:28:39;;;;;;;35.45;7.28;;;;;;;25.78;95.52;97488.97;5005876;28;20040;-61
2022/08/05 02:31:11;;;;;;;31.80;7.15;;;;;;;25.49;99.67;97490.38;4990241;28;20042;-61
2022/08/05 02:33:40;;;;;;;;;;;;;;;25.72;94.10;97490.50;5007557;28;20026;-62
2022/08/05 02:36:11;;;;;;;29.35;7.47;;;;;;;24.88;100.00;97491.72;5007581;28;19917;-62
2022/08/05 02:38:37;;;;;;;34.65;7.60;;;;;;;24.99;100.00;97488.72;5007191;28;20103;-61
2022/08/05 02:41:07;;;;;;;29.30;7.22;;;;;;;25.12;100.00;97489.06;5010459;28;20025;-61
2022/08/05 02:43:32;;;;;;;30.80;7.13;;;;;;;24.80;100.00;97490.72;5010539;28;20036;-61
2022/08/05 02:46:00;;;;;;;35.20;8.18;;;;;;;25.28;100.00;97487.44;5008907;28;20042;-61
2022/08/05 02:48:26;;;;;;;31.23;7.38;;;;;;;25.55;100.00;97483.56;5008153;28;20040;-64
2022/08/05 02:50:53;;;;;;;29.27;7.32;;;;;;;25.24;100.00;97491.44;5010323;28;20045;-62
2022/08/05 02:53:20;;;;;;;65.80;10.80;;;;;;;25.38;100.00;97482.72;5009400;28;20111;-61
2022/08/05 02:55:47;;;;;;;33.47;7.57;;;;;;;25.75;99.81;97476.81;5009007;28;20491;-61
2022/08/05 02:58:15;;;;;;;35.35;7.60;;;;;;;25.55;100.00;97483.56;5008681;28;20026;-62
2022/08/05 03:00:43;;;;;;;36.28;7.85;;;;;;;25.13;100.00;97474.72;5012164;28;20033;-61
2022/08/05 03:03:10;;;;;;;44.58;7.85;;;;;;;25.55;99.84;97479.03;5011945;28;20036;-62
2022/08/05 03:05:38;;;;;;;36.35;8.32;;;;;;;25.25;100.00;97471.75;5010873;28;20041;-62
2022/08/05 03:08:04;;;;;;;40.92;7.53;;;;;;;25.19;100.00;97474.03;5011251;28;20037;-61
2022/08/05 03:10:30;;;;;;;32.17;7.68;;;;;;;24.96;100.00;97471.22;5008702;28;20038;-62
2022/08/05 03:12:55;;;;;;;36.72;7.85;;;;;;;25.29;100.00;97465.06;5011461;28;20036;-62
2022/08/05 03:15:21;;;;;;;35.85;7.55;;;;;;;25.58;98.99;97468.03;5010912;28;20120;-62
2022/08/05 03:17:47;;;;;;;35.85;7.68;;;;;;;25.44;99.64;97467.88;5009779;28;20021;-62
2022/08/05 03:20:12;;;;;;;48.05;8.63;;;;;;;25.41;100.00;97466.38;5011356;28;20595;-63
2022/08/05 03:22:38;;;;;;;44.03;8.05;;;;;;;25.39;100.00;97460.38;5010054;28;20025;-63
2022/08/05 03:25:04;;;;;;;29.83;7.25;;;;;;;25.05;100.00;97466.72;5012241;28;20034;-63
2022/08/05 03:27:31;;;;;;;36.47;8.07;;;;;;;24.61;100.00;97456.34;5008723;28;20068;-62
2022/08/05 03:29:57;;;;;;;35.63;7.88;;;;;;;25.65;100.00;97462.00;5008686;28;20044;-62
2022/08/05 03:32:23;;;;;;;37.22;7.97;;;;;;;25.48;100.00;97462.03;5008742;28;20038;-60
2022/08/05 03:34:49;;;;;;;33.80;7.30;;;;;;;25.13;100.00;97468.56;5009271;28;20044;-61
2022/08/05 03:37:14;;;;;;;35.40;7.97;;;;;;;25.41;100.00;97466.38;5009381;28;20042;-61
2022/08/05 03:39:53;;;;;;;27.35;7.10;;;;;;;24.86;100.00;97539.06;5009305;28;20032;-61
2022/08/05 03:42:18;;;;;;;31.48;7.15;;;;;;;24.21;100.00;97532.53;5010093;28;20045;-61
2022/08/05 03:44:44;;;;;;;34.97;8.00;;;;;;;25.63;100.00;97493.38;5010462;28;20072;-62
2022/08/05 03:47:09;;;;;;;30.02;6.93;;;;;;;25.67;100.00;97548.09;5008612;28;20083;-61
2022/08/05 03:49:34;;;;;;;34.72;7.65;;;;;;;25.16;100.00;97527.78;5011141;28;20111;-62
2022/08/05 03:52:04;;;;;;;28.20;6.25;;;;;;;27.19;89.07;97527.38;5008434;28;20096;-62
2022/08/05 03:54:42;;;;;;;33.15;7.35;;;;;;;26.97;87.74;97537.91;5012023;28;20025;-62
2022/08/05 03:57:10;;;;;;;30.17;7.22;;;;;;;26.55;91.92;97526.59;5009012;28;20061;-61
2022/08/05 03:59:42;;;;;;;34.83;7.15;;;;;;;27.04;87.25;97532.69;5009066;28;20582;-63
2022/08/05 04:02:09;;;;;;;29.13;6.88;;;;;;;26.90;86.49;97521.72;5010456;28;20132;-61
2022/08/05 04:04:36;;;;;;;28.40;7.40;;;;;;;26.54;91.53;97534.78;5009137;28;20029;-61
2022/08/05 04:07:02;;;;;;;29.27;7.32;;;;;;;26.97;85.99;97526.38;5007234;28;20167;-61
2022/08/05 04:09:29;;;;;;;34.63;7.50;;;;;;;27.11;83.97;97526.44;5006570;28;20025;-62
2022/08/05 04:11:55;;;;;;;30.92;7.15;;;;;;;27.24;83.18;97527.66;5008410;28;20046;-61
2022/08/05 04:14:21;;;;;;;32.67;7.10;;;;;;;27.61;80.22;97531.38;5008459;28;20043;-62
2022/08/05 04:16:47;;;;;;;41.55;7.90;;;;;;;27.90;76.11;97538.63;5009490;28;20049;-61
2022/08/05 04:19:12;;;;;;;29.60;6.55;;;;;;;28.21;73.00;97541.13;5009257;28;20038;-62
2022/08/05 04:21:38;;;;;;;30.27;7.65;;;;;;;26.97;85.95;97527.19;5009589;28;20033;-62
2022/08/05 04:24:05;;;;;;;24.58;6.13;;;;;;;27.42;86.01;97525.53;5010194;28;20033;-62
2022/08/05 04:26:30;;;;;;;30.80;7.13;;;;;;;27.31;85.25;97520.59;5007624;28;20041;-61
2022/08/05 04:28:55;;;;;;;46.88;8.05;;;;;;;26.94;89.90;97514.16;5009202;28;20030;-62
2022/08/05 04:31:21;;;;;;;27.92;6.68;;;;;;;28.23;78.04;97527.50;5009514;28;20038;-62
2022/08/05 04:33:46;;;;;;;33.03;7.95;;;;;;;27.03;93.34;97537.19;5007563;28;20022;-63
2022/08/05 04:36:13;;;;;;;29.40;6.68;;;;;;;27.74;85.44;97534.25;5007607;28;20038;-62
2022/08/05 04:38:39;;;;;;;28.58;6.80;;;;;;;27.39;86.97;97541.94;5009413;28;20544;-62
2022/08/05 04:41:04;;;;;;;37.55;7.10;;;;;;;27.18;90.07;97539.09;5006602;28;20030;-62
2022/08/05 04:43:30;;;;;;;30.98;7.10;;;;;;;27.73;86.15;97532.56;5009324;28;20105;-63
2022/08/05 04:45:55;;;;;;;26.63;6.57;;;;;;;27.23;91.85;97526.81;5009368;28;20125;-61
2022/08/05 04:48:20;;;;;;;28.73;6.88;;;;;;;28.61;76.41;97530.91;5008302;28;20021;-61
2022/08/05 04:50:47;;;;;;;31.48;7.28;;;;;;;27.77;81.64;97535.72;5009359;28;20038;-62
2022/08/05 04:53:16;;;;;;;34.45;6.93;;;;;;;27.57;89.29;97540.78;5009817;28;20034;-62
2022/08/05 04:55:43;;;;;;;28.90;6.85;;;;;;;27.78;90.74;97542.75;5008425;28;20037;-62
2022/08/05 04:58:10;;;;;;;34.92;7.50;;;;;;;27.91;86.71;97539.47;5008840;28;20053;-61
2022/08/05 05:00:37;;;;;;;27.02;6.80;;;;;;;28.15;84.79;97541.84;5007870;28;20033;-61
2022/08/05 05:03:04;;;;;;;31.98;7.47;;;;;;;28.13;82.95;97548.44;5008660;28;20037;-62
2022/08/05 05:05:30;;;;;;;34.75;7.60;;;;;;;28.02;84.95;97550.56;5005378;28;20047;-62
2022/08/05 05:08:00;;;;;;;28.20;7.05;;;;;;;28.21;80.24;97549.19;5010364;28;20025;-65
2022/08/05 05:10:25;;;;;;;36.42;7.82;;;;;;;27.78;83.61;97540.91;5006751;28;20136;-62
2022/08/05 05:12:50;;;;;;;26.27;6.78;;;;;;;28.20;82.28;97552.03;5007191;28;20076;-62
2022/08/05 05:15:16;;;;;;;30.27;7.25;;;;;;;27.91;84.03;97552.88;5008000;28;20372;-62
2022/08/05 05:17:42;;;;;;;30.70;6.80;;;;;;;28.36;81.79;97559.03;5007846;28;20805;-61
2022/08/05 05:20:09;;;;;;;38.47;8.18;;;;;;;28.19;82.23;97567.28;5007846;28;20037;-62
2022/08/05 05:22:35;;;;;;;37.10;7.63;;;;;;;29.08;76.40;97568.13;5009387;28;20029;-62
2022/08/05 05:25:01;;;;;;;30.88;6.93;;;;;;;28.61;79.34;97565.78;5009352;28;20025;-61
2022/08/05 05:27:31;;;;;;;33.95;7.13;;;;;;;29.11;75.42;97573.13;5009072;28;20392;-61
2022/08/05 05:29:56;;;;;;;33.33;7.38;;;;;;;28.61;79.53;97573.81;5008147;28;20024;-62
2022/08/05 05:32:22;;;;;;;28.50;7.05;;;;;;;28.65;84.76;97587.69;5008843;28;20041;-61
2022/08/05 05:34:47;;;;;;;27.63;6.60;;;;;;;28.80;81.32;97588.50;5008571;28;20057;-61
2022/08/05 05:37:13;;;;;;;29.80;7.00;;;;;;;29.56;74.77;97592.59;5008565;28;20578;-62
2022/08/05 05:39:39;;;;;;;33.38;7.70;;;;;;;29.03;77.42;97593.72;5006405;28;20044;-62
2022/08/05 05:42:04;;;;;;;31.52;7.03;;;;;;;29.57;73.71;97596.94;5007979;28;20038;-61
2022/08/05 05:44:30;;;;;;;31.88;7.18;;;;;;;28.94;72.40;97605.59;5007267;28;20079;-61
2022/08/05 05:46:55;;;;;;;28.92;6.97;;;;;;;29.53;68.69;97617.97;5008674;28;20099;-62
2022/08/05 05:49:21;;;;;;;30.20;6.82;;;;;;;29.71;69.60;97630.94;5008860;28;20032;-61
2022/08/05 05:51:46;;;;;;;35.75;7.55;;;;;;;28.96;74.35;97627.69;5007044;28;20107;-61
2022/08/05 05:54:11;;;;;;;34.08;7.28;;;;;;;29.06;72.09;97626.56;5008239;28;20022;-62
2022/08/05 05:56:37;;;;;;;29.88;6.85;;;;;;;29.23;72.87;97630.72;5006316;28;20148;-62
2022/08/05 05:59:03;;;;;;;32.80;7.25;;;;;;;29.87;66.68;97620.97;5007453;28;20025;-61
2022/08/05 06:01:30;;;;;;;27.30;6.70;;;;;;;32.70;56.09;97632.03;5006453;28;20578;-61
2022/08/05 06:03:55;;;;;;;34.97;7.38;;;;;;;33.46;50.25;97630.41;5004739;28;20038;-61
2022/08/05 06:06:21;;;;;;;30.25;6.70;;;;;;;34.45;45.70;97613.56;5007649;28;20092;-61
2022/08/05 06:08:46;;;;;;;24.50;5.55;;;;;;;36.43;40.07;97599.13;5008775;28;20033;-63
2022/08/05 06:11:11;;;;;;;27.20;5.93;;;;;;;35.80;39.03;97589.81;5005656;28;20125;-66
2022/08/05 06:13:37;;;;;;;26.35;5.95;;;;;;;37.42;35.44;97596.19;5007125;28;20120;-63
2022/08/05 06:16:02;;;;;;;29.92;6.40;;;;;;;36.92;36.34;97607.75;5006285;28;20038;-64
2022/08/05 06:18:28;;;;;;;19.05;5.30;;;;;;;38.88;34.18;97622.56;5008709;28;20048;-63
2022/08/05 06:20:53;;;;;;;31.83;5.78;;;;;;;39.60;35.79;97632.34;5006455;28;20033;-64
2022/08/05 06:23:18;;;;;;;20.98;5.80;;;;;;;38.55;34.87;97637.97;5002868;28;20932;-63
2022/08/05 06:25:44;;;;;;;17.55;5.20;;;;;;;36.45;36.71;97645.91;5003990;28;20112;-63
2022/08/05 06:28:09;;;;;;;23.88;5.85;;;;;;;34.85;39.68;97678.09;5008206;28;20038;-62
2022/08/05 06:30:34;;;;;;;24.25;5.72;;;;;;;34.53;40.80;97705.31;5006427;28;20072;-62
2022/08/05 06:33:00;;;;;;;24.23;5.72;;;;;;;34.11;41.22;97699.63;5007749;28;20030;-63
2022/08/05 06:35:25;;;;;;;30.15;6.43;;;;;;;33.89;41.64;97704.59;5008058;28;20418;-62
2022/08/05 06:37:50;;;;;;;28.60;6.22;;;;;;;33.02;42.38;97699.63;5006343;28;20509;-62
2022/08/05 06:40:16;;;;;;;22.85;6.13;;;;;;;33.55;42.24;97699.38;5006410;28;20060;-63
2022/08/05 06:42:41;;;;;;;23.52;5.88;;;;;;;33.18;44.03;97701.88;5007963;28;20025;-63
2022/08/05 06:45:07;;;;;;;27.15;6.68;;;;;;;32.67;44.28;97702.66;5004019;28;20026;-63
2022/08/05 06:47:32;;;;;;;25.75;6.25;;;;;;;33.68;42.46;97703.09;5007941;28;20052;-63
2022/08/05 06:49:58;;;;;;;31.13;6.63;;;;;;;34.34;42.14;97709.88;5004455;28;20032;-62
2022/08/05 06:52:23;;;;;;;28.77;6.35;;;;;;;33.57;42.76;97734.31;5006638;28;20068;-62
2022/08/05 06:54:48;;;;;;;28.63;5.68;;;;;;;34.23;42.02;97735.78;5008647;28;20028;-62
2022/08/05 06:57:15;;;;;;;29.23;6.53;;;;;;;33.50;43.50;97745.16;5005800;28;20072;-62
2022/08/05 06:59:40;;;;;;;27.98;6.18;;;;;;;32.56;44.89;97743.78;5004754;28;20488;-62
2022/08/05 07:02:06;;;;;;;22.83;5.68;;;;;;;33.78;43.22;97747.53;5003213;28;20126;-62
2022/08/05 07:04:32;;;;;;;18.70;4.93;;;;;;;32.59;45.60;97746.06;5008563;28;20025;-64
2022/08/05 07:06:57;;;;;;;19.65;4.95;;;;;;;33.27;45.20;97739.44;5007289;28;20156;-62
2022/08/05 07:09:22;;;;;;;19.85;5.15;;;;;;;32.23;46.96;97747.31;5007215;28;20112;-62
2022/08/05 07:11:48;;;;;;;22.60;5.28;;;;;;;32.69;46.10;97754.56;5008171;28;20160;-62
2022/08/05 07:16:59;;;;;;;22.20;4.95;;;;;;;33.77;44.48;97782.91;5007867;28;20048;-62
2022/08/05 07:19:27;;;;;;;18.60;4.82;;;;;;;34.10;43.66;97784.56;5011714;28;20107;-62
2022/08/05 07:21:54;;;;;;;18.55;4.78;;;;;;;34.78;43.12;97794.69;5009610;28;20040;-63
2022/08/05 07:24:19;;;;;;;22.27;4.70;;;;;;;35.17;41.83;97797.19;5009041;28;20057;-63
2022/08/05 07:26:45;;;;;;;23.48;4.97;;;;;;;35.87;41.25;97797.56;5008681;28;20068;-63
2022/08/05 07:29:10;;;;;;;21.17;4.75;;;;;;;34.37;42.85;97810.41;5011804;28;20026;-64
2022/08/05 07:31:36;;;;;;;22.42;4.70;;;;;;;37.13;38.93;97804.72;5008156;28;20034;-62
2022/08/05 07:34:02;;;;;;;25.60;4.93;;;;;;;36.96;38.74;97815.47;5010997;28;20030;-64
2022/08/05 07:36:28;;;;;;;15.32;4.25;;;;;;;37.32;37.79;97813.56;5011787;28;20547;-66
2022/08/05 07:38:54;;;;;;;18.48;4.57;;;;;;;37.54;37.74;97804.75;5014113;28;20119;-65
2022/08/05 07:41:21;;;;;;;16.95;4.03;;;;;;;38.60;36.26;97808.88;5012738;28;20488;-63
2022/08/05 07:43:47;;;;;;;20.33;4.55;;;;;;;38.32;36.10;97802.41;5012044;28;20029;-64
2022/08/05 07:46:12;;;;;;;23.23;5.00;;;;;;;40.03;33.75;97802.56;5011340;28;20036;-63
2022/08/05 07:48:38;;;;;;;18.23;4.43;;;;;;;40.46;33.77;97811.72;5012933;28;20030;-63
2022/08/05 07:51:03;;;;;;;17.35;4.10;;;;;;;40.78;32.40;97808.13;5011540;28;20057;-63
2022/08/05 07:53:28;;;;;;;15.98;4.30;;;;;;;40.84;31.29;97812.56;5011828;28;20034;-63
2022/08/05 07:55:54;;;;;;;14.05;4.05;;;;;;;40.37;31.54;97810.53;5012853;28;20041;-63
2022/08/05 07:58:19;;;;;;;16.25;4.40;;;;;;;40.38;31.88;97803.16;5014343;28;20029;-63
2022/08/05 08:00:45;;;;;;;15.38;4.18;;;;;;;40.67;31.43;97812.66;5012011;28;20037;-63
2022/08/05 08:03:12;;;;;;;15.23;4.07;;;;;;;40.06;31.62;97799.31;5009814;28;20039;-62
2022/08/05 08:05:42;;;;;;;18.55;3.80;;;;;;;39.17;32.46;97805.91;5007636;28;20056;-63
2022/08/05 08:08:11;;;;;;;14.70;3.87;;;;;;;40.01;31.17;97792.97;5009341;28;20061;-63
2022/08/05 08:10:36;;;;;;;16.35;4.03;;;;;;;38.05;34.16;97800.31;5012667;28;20487;-63
2022/08/05 08:13:02;;;;;;;15.98;4.05;;;;;;;39.29;33.36;97803.88;5008821;28;20032;-63
2022/08/05 08:15:27;;;;;;;17.05;4.18;;;;;;;39.48;32.59;97798.13;5009315;28;20062;-64
2022/08/05 08:17:53;;;;;;;13.20;3.80;;;;;;;39.25;33.44;97800.00;5011189;28;20101;-66
2022/08/05 08:20:20;;;;;;;14.77;3.80;;;;;;;41.25;30.22;97803.78;5010667;28;20030;-63
2022/08/05 08:22:53;;;;;;;12.93;3.67;;;;;;;41.36;29.75;97807.38;5009432;28;20033;-62
2022/08/05 08:25:19;;;;;;;20.13;4.32;;;;;;;41.83;29.86;97795.47;5011688;28;20077;-62
2022/08/05 08:27:45;;;;;;;12.88;3.42;;;;;;;40.85;30.86;97803.25;5011179;28;20026;-62
2022/08/05 08:30:11;;;;;;;14.13;3.90;;;;;;;39.26;32.81;97806.28;5010992;28;20045;-63
2022/08/05 08:32:36;;;;;;;13.43;3.58;;;;;;;38.07;33.77;97803.59;5009992;28;20030;-62
2022/08/05 08:35:02;;;;;;;17.90;3.60;;;;;;;40.28;31.80;97814.81;5012933;28;20022;-61
2022/08/05 08:37:28;;;;;;;16.58;4.25;;;;;;;40.07;31.23;97808.31;5010621;28;20033;-61
2022/08/05 08:39:53;;;;;;;19.70;4.78;;;;;;;38.84;33.24;97810.34;5013597;28;20021;-63
2022/08/05 08:42:20;;;;;;;12.32;3.63;;;;;;;40.39;31.02;97805.63;5013234;28;20056;-61
2022/08/05 08:44:46;;;;;;;14.43;3.70;;;;;;;42.41;30.05;97816.38;5010813;28;20116;-62
2022/08/05 08:47:13;;;;;;;16.38;3.50;;;;;;;41.27;30.52;97808.94;5010200;28;20567;-62
2022/08/05 08:49:43;;;;;;;12.38;3.40;;;;;;;41.54;30.60;97812.38;5009687;28;20555;-63
2022/08/05 08:52:18;;;;;;;15.20;4.07;;;;;;;43.18;28.24;97814.38;5010669;28;20041;-63
2022/08/05 08:54:46;;;;;;;15.80;3.83;;;;;;;42.69;28.17;97829.56;5010693;28;20821;-63
2022/08/05 08:57:12;;;;;;;17.33;4.00;;;;;;;41.62;29.09;97821.97;5012428;28;20048;-62
2022/08/05 08:59:38;;;;;;;11.00;3.60;;;;;;;40.35;30.34;97809.13;5011199;28;20034;-62
2022/08/05 09:02:05;;;;;;;16.63;3.80;;;;;;;42.85;28.36;97818.56;5010129;28;20053;-62
2022/08/05 09:04:36;;;;;;;11.35;3.03;;;;;;;42.29;29.39;97825.69;5011624;28;20029;-62
2022/08/05 09:07:01;;;;;;;;;;;;;;;41.96;29.77;97827.81;5011920;28;20504;-64
2022/08/05 09:09:27;;;;;;;12.57;3.00;;;;;;;42.98;27.88;97828.16;5011702;28;19916;-62
2022/08/05 09:11:52;;;;;;;9.15;2.95;;;;;;;41.35;29.54;97813.94;5008819;28;20061;-62
2022/08/05 09:14:18;;;;;;;10.48;3.30;;;;;;;43.22;27.45;97820.16;5010631;28;20483;-63
2022/08/05 09:16:44;;;;;;;9.45;2.88;;;;;;;43.99;26.79;97817.88;5011431;28;20048;-62
2022/08/05 09:19:10;;;;;;;14.75;3.60;;;;;;;44.31;26.54;97824.81;5009776;28;20026;-62
2022/08/05 09:21:35;;;;;;;12.02;3.65;;;;;;;42.27;28.10;97825.16;5010539;28;20038;-63
2022/08/05 09:24:03;;;;;;;14.10;3.40;;;;;;;40.51;30.08;97810.09;5010605;28;20037;-62
2022/08/05 09:26:29;;;;;;;10.27;3.13;;;;;;;39.31;31.66;97815.34;5011969;28;20038;-62
2022/08/05 09:28:59;;;;;;;14.60;3.47;;;;;;;41.07;30.39;97817.88;5010217;28;20107;-62
2022/08/05 09:31:25;;;;;;;32.97;4.73;;;;;;;41.12;29.80;97807.78;5009775;28;20107;-64
2022/08/05 09:33:51;;;;;;;12.82;3.63;;;;;;;39.51;31.31;97811.28;5011696;28;20051;-62
2022/08/05 09:36:17;;;;;;;16.55;3.50;;;;;;;40.43;30.31;97811.41;5009121;28;20117;-62
2022/08/05 09:38:59;;;;;;;10.48;3.40;;;;;;;39.84;31.54;97817.63;5011170;28;20059;-62
2022/08/05 09:41:25;;;;;;;11.55;3.30;;;;;;;39.61;31.63;97819.59;5009310;28;20042;-62
2022/08/05 09:43:51;;;;;;;13.25;3.53;;;;;;;38.16;32.21;97812.25;5010557;28;20032;-63
2022/08/05 09:46:31;;;;;;;15.73;3.83;;;;;;;38.18;33.15;97821.81;5009575;28;20080;-62
2022/08/05 09:48:58;;;;;;;11.32;3.20;;;;;;;40.22;30.92;97816.69;5009335;28;20500;-62
2022/08/05 09:51:37;;;;;;;14.82;3.55;;;;;;;39.88;29.46;97810.56;5010284;28;20038;-62
2022/08/05 09:54:07;;;;;;;14.93;3.05;;;;;;;39.94;29.93;97806.84;5011239;28;20025;-62
2022/08/05 09:56:36;;;;;;;16.63;3.65;;;;;;;38.60;30.75;97817.03;5009714;28;20048;-62
2022/08/05 09:59:07;;;;;;;13.63;3.13;;;;;;;37.42;32.75;97804.78;5010394;28;20030;-61
2022/08/05 10:01:36;;;;;;;13.88;3.35;;;;;;;36.92;32.17;97800.72;5009986;28;20041;-62
2022/08/05 10:04:12;;;;;;;15.02;3.25;;;;;;;36.74;33.17;97795.41;5009804;28;20096;-61
2022/08/05 10:06:56;;;;;;;15.10;3.45;;;;;;;35.79;34.88;97800.63;5011394;28;20038;-61
2022/08/05 10:09:22;;;;;;;14.27;3.17;;;;;;;36.97;32.94;97789.97;5011153;28;20113;-61
2022/08/05 10:11:49;;;;;;;13.73;3.15;;;;;;;37.71;31.78;97789.34;5009031;28;20037;-61
2022/08/05 10:14:29;;;;;;;14.90;3.00;;;;;;;39.66;28.53;97786.88;5008505;28;20540;-61
2022/08/05 10:17:10;;;;;;;13.32;3.03;;;;;;;40.66;28.12;97771.94;5010464;28;20045;-62
2022/08/05 10:19:36;;;;;;;18.60;3.60;;;;;;;40.71;27.35;97768.41;5010356;28;20617;-63
2022/08/05 10:22:01;;;;;;;13.80;2.85;;;;;;;40.85;27.60;97770.44;5007747;28;20034;-62
2022/08/05 10:24:27;;;;;;;12.23;3.10;;;;;;;41.55;27.19;97767.47;5009231;28;20022;-61
2022/08/05 10:26:55;;;;;;;12.98;3.13;;;;;;;40.74;26.84;97763.25;5009009;28;20124;-62
2022/08/05 10:29:21;;;;;;;10.10;2.47;;;;;;;40.92;26.88;97758.44;5009138;28;20084;-62
2022/08/05 10:31:46;;;;;;;15.43;3.33;;;;;;;41.92;26.42;97766.47;5007614;28;20030;-62
2022/08/05 10:34:12;;;;;;;11.38;2.70;;;;;;;40.90;26.50;97766.06;5011116;28;20093;-62
2022/08/05 10:36:39;;;;;;;10.77;2.67;;;;;;;41.34;26.08;97760.28;5009749;28;20069;-62
2022/08/05 10:39:30;;;;;;;9.73;2.55;;;;;;;41.21;26.17;97767.91;5009597;28;20141;-65
2022/08/05 10:42:10;;;;;;;22.45;3.80;;;;;;;41.39;25.54;97763.03;5008882;28;20040;-63
2022/08/05 10:44:37;;;;;;;13.60;3.00;;;;;;;42.01;25.51;97761.28;5008609;28;20043;-64
2022/08/05 10:47:14;;;;;;;17.40;3.45;;;;;;;42.22;25.25;97770.34;5009297;28;20048;-63
2022/08/05 10:49:58;;;;;;;15.10;3.15;;;;;;;41.04;26.00;97767.25;5009068;28;20042;-63
2022/08/05 10:52:44;;;;;;;15.30;3.13;;;;;;;42.61;24.71;97775.28;5009853;28;20033;-62
2022/08/05 10:55:12;;;;;;;16.25;3.13;;;;;;;41.51;25.29;97766.38;5007939;28;20053;-62
2022/08/05 10:57:40;;;;;;;12.13;3.08;;;;;;;40.25;25.96;97755.22;5008974;28;20545;-62
2022/08/05 11:00:20;;;;;;;24.15;4.28;;;;;;;42.75;24.42;97757.13;5008227;28;20538;-61
2022/08/05 11:02:57;;;;;;;15.00;3.07;;;;;;;41.50;25.57;97748.28;5015617;28;20081;-62
2022/08/05 11:05:23;;;;;;;17.70;3.50;;;;;;;42.45;24.91;97754.44;5014757;28;20495;-62
2022/08/05 11:08:05;;;;;;;13.75;2.90;;;;;;;41.23;25.48;97749.31;5013672;28;20488;-62
2022/08/05 11:10:32;;;;;;;14.10;3.00;;;;;;;42.17;24.33;97748.44;5012189;28;20028;-62
2022/08/05 11:12:58;;;;;;;15.90;3.10;;;;;;;41.46;24.95;97732.69;5014160;28;20022;-62
2022/08/05 11:15:38;;;;;;;14.82;2.90;;;;;;;41.11;25.51;97728.72;5009535;28;20025;-62
2022/08/05 11:18:06;;;;;;;15.32;3.17;;;;;;;40.35;25.79;97722.56;5013244;28;20032;-61
2022/08/05 11:20:33;;;;;;;16.35;3.47;;;;;;;41.72;25.14;97728.91;5012953;28;20471;-65
2022/08/05 11:22:59;;;;;;;10.98;2.72;;;;;;;41.69;25.00;97728.63;5013598;28;20022;-62
2022/08/05 11:25:44;;;;;;;18.75;3.53;;;;;;;40.50;26.03;97735.50;5013001;28;20025;-62
2022/08/05 11:28:12;;;;;;;13.35;2.83;;;;;;;40.42;25.89;97722.31;5013348;28;20125;-66
2022/08/05 11:31:02;;;;;;;13.02;2.88;;;;;;;41.29;26.38;97730.19;5012537;28;20817;-66